Littleton, IL (61452)

7:36 AM CDT on October 02, 2014 (GMT -0500)
Rushville (Inner City) | Change Station
CLOSE
Current Station
Personal Weather Station
Location: Rushville, IL
Elevation: 666 ft
Nearby Weather Stations

Elev 666 ft 40.12 °N, 90.57 °W | Updated 10 seconds ago

Mostly Cloudy
Mostly Cloudy
64.0 °F
Feels Like 64.0 °F
N
0.0
Wind Variable Wind from ESE
Gusts 2.0 mph

Today
High -- | Low -- °F
--% Chance of Precip.
Yesterday
High -- | Low -- °F
Precip. -- in
6:59 AM 6:43 PM
First Quarter, 58% visible
Pressure 29.84 in
Visibility 2.5 miles
Clouds Scattered Clouds 5500 ft
Mostly Cloudy 6500 ft
Dew Point 63 °F
Humidity 97%
Rainfall 0.17 in
Snow Depth Not available.
UV 0 out of 12
Pollen .50 out of 12
Air Quality Not available.
Flu Activity Not available.
METAR KMQB 021215Z AUTO 00000KT 2 1/2SM BR SCT055 BKN065 17/17 A2984 RMK AO2 T01670167

More Conditions Fewer Conditions

Pressure 29.84 in
Visibility 2.5 miles
Clouds Scattered Clouds 5500 ft
Mostly Cloudy 6500 ft
Dew Point 63 °F
Humidity 97%
Rainfall 0.17 in
Snow Depth Not available.
UV 0 out of 12
Pollen .50 out of 12
Air Quality Not available.
Flu Activity Not available.
METAR KMQB 021215Z AUTO 00000KT 2 1/2SM BR SCT055 BKN065 17/17 A2984 RMK AO2 T01670167

More Conditions Fewer Conditions

10-Day Weather Forecast

Almanac

Astronomy

Oct. 02, 2014 Rise Set
Actual Time 6:59 AM CDT 6:43 PM CDT
Civil Twilight 6:32 AM CDT 7:10 PM CDT
Nautical Twilight 6:01 AM CDT 7:41 PM CDT
Astronomical Twilight 5:29 AM CDT 8:13 PM CDT
Moon 2:50 PM CDT 12:16 AM CDT
Length of Visible Light 12h 37m
Length of Day
11h 43m
Tomorrow will be 2m 38s shorter.
First Quarter, 58% of the Moon is Illuminated
Today
First Quarter
Oct 8
Full
Oct 15
Last Quarter
Oct 23
New
Oct 30
First Quarter

Today's Extremes

State Highs State Lows

Community

WunderPhotos

Upload Photos

1,758,223 photos uploaded!

WunderBlogs® & News

Nearby

Snow Depth

Station Depth Elevation
No new snow has been reported.

Earthquake Activity

City Distance Mag. Time & Date
No recent earthquake activity has been reported nearby.
Minimum magnitude displayed is 2.5.

Coastal Water Temperatures

Place Temperature
No Stations Reporting

Nearby Weather Stations